createdAt,value
2017-06-08T00:00:07.715Z,91.46
2017-06-08T00:01:08.032Z,90.03
2017-06-08T00:02:08.034Z,90.6
2017-06-08T00:03:07.688Z,91.46
2017-06-08T00:04:07.678Z,92.03
2017-06-08T00:05:07.686Z,91.46
2017-06-08T00:06:07.676Z,91.46
2017-06-08T00:07:07.978Z,92.13
2017-06-08T00:08:07.650Z,92.03
2017-06-08T00:09:07.643Z,92.32
2017-06-08T00:10:07.955Z,92.22
2017-06-08T00:11:07.964Z,92.32
2017-06-08T00:12:07.937Z,92.98
2017-06-08T00:13:07.928Z,92.41
2017-06-08T00:14:07.935Z,92.89
2017-06-08T00:15:07.914Z,93.27
2017-06-08T00:16:07.593Z,92.69
2017-06-08T00:17:07.904Z,92.74
2017-06-08T00:18:07.569Z,92.89
2017-06-08T00:19:07.885Z,93.03
2017-06-08T00:20:07.876Z,93.51
2017-06-08T00:21:07.716Z,93.6
2017-06-08T00:22:07.859Z,93.89
2017-06-08T00:23:07.849Z,94.08
2017-06-08T00:24:07.842Z,94.37
2017-06-08T00:25:07.830Z,95.32
2017-06-08T00:26:07.861Z,95.32
2017-06-08T00:27:07.816Z,94.93
2017-06-08T00:28:07.493Z,95.41
2017-06-08T00:29:07.801Z,95.7
2017-06-08T00:30:07.472Z,95.7
2017-06-08T00:31:07.788Z,95.32
2017-06-08T00:32:07.784Z,95.79
2017-06-08T00:33:07.769Z,96.55
2017-06-08T00:34:07.777Z,95.7
2017-06-08T00:35:07.752Z,95.41
2017-06-08T00:36:07.422Z,95.65
2017-06-08T00:37:07.736Z,96.22
2017-06-08T00:38:07.766Z,96.31
2017-06-08T00:39:07.719Z,96.51
2017-06-08T00:40:07.729Z,96.51
2017-06-08T00:41:07.382Z,96.6
2017-06-08T00:42:07.371Z,97.08
2017-06-08T00:43:07.689Z,97.27
2017-06-08T00:44:07.358Z,97.65
2017-06-08T00:45:07.371Z,97.65
2017-06-08T00:46:07.336Z,97.36
2017-06-08T00:47:07.692Z,97.46
2017-06-08T00:48:07.323Z,97.74
2017-06-08T00:49:07.315Z,97.55
2017-06-08T00:50:07.628Z,98.03
2017-06-08T00:51:07.618Z,97.84
2017-06-08T00:52:07.607Z,97.93
2017-06-08T00:53:07.604Z,98.13
2017-06-08T00:54:07.597Z,98.13
2017-06-08T00:55:07.265Z,98.79
2017-06-08T00:56:07.577Z,98.13
2017-06-08T00:57:07.266Z,97.93
2017-06-08T00:58:07.239Z,98.32
2017-06-08T00:59:07.569Z,98.6
2017-06-08T01:00:07.542Z,99.46
2017-06-08T01:01:07.210Z,98.32
2017-06-08T01:02:07.204Z,98.88
2017-06-08T01:03:07.525Z,98.83
2017-06-08T01:04:07.508Z,99.5
2017-06-08T01:05:07.502Z,99.5
2017-06-08T01:06:07.502Z,99.99
2017-06-08T01:07:07.159Z,99.69
2017-06-08T01:08:07.471Z,99.79
2017-06-08T01:09:07.493Z,99.99
2017-06-08T01:10:07.453Z,99.99
2017-06-08T01:11:07.276Z,99.99
2017-06-08T01:12:07.117Z,99.99
2017-06-08T01:13:07.431Z,99.99
2017-06-08T01:14:07.423Z,99.99
2017-06-08T01:15:07.090Z,99.99
2017-06-08T01:16:07.403Z,99.99
2017-06-08T01:17:07.072Z,99.99
2017-06-08T01:18:07.382Z,99.99
2017-06-08T01:19:07.375Z,99.99
2017-06-08T01:20:07.367Z,99.99
2017-06-08T01:21:07.357Z,99.99
2017-06-08T01:22:07.501Z,99.99
2017-06-08T01:23:07.033Z,99.99
2017-06-08T01:24:07.009Z,99.99
2017-06-08T01:25:07.323Z,99.99
2017-06-08T01:26:07.334Z,99.99
2017-06-08T01:27:07.307Z,99.99
2017-06-08T01:28:07.303Z,99.99
2017-06-08T01:29:07.291Z,99.99
2017-06-08T01:30:07.283Z,99.99
2017-06-08T01:31:07.269Z,99.99
2017-06-08T01:32:06.934Z,99.99
2017-06-08T01:33:07.259Z,99.99
2017-06-08T01:34:06.919Z,99.99
2017-06-08T01:35:07.234Z,99.99
2017-06-08T01:36:07.223Z,99.99
2017-06-08T01:37:06.895Z,99.99
2017-06-08T01:38:07.224Z,99.99
2017-06-08T01:39:07.198Z,99.99
2017-06-08T01:40:06.866Z,99.88
2017-06-08T01:41:06.922Z,99.99
2017-06-08T01:42:06.852Z,99.22
2017-06-08T01:43:07.159Z,99.02
2017-06-08T01:44:07.151Z,99.5
2017-06-08T01:45:06.823Z,99.22
2017-06-08T01:46:07.147Z,99.5
2017-06-08T01:47:07.147Z,98.93
2017-06-08T01:48:07.125Z,98.46
2017-06-08T01:49:07.125Z,98.55
2017-06-08T01:50:07.150Z,98.55
2017-06-08T01:51:07.243Z,98.55
2017-06-08T01:52:06.757Z,98.36
2017-06-08T01:53:07.071Z,98.55
2017-06-08T01:54:06.759Z,98.36
2017-06-08T01:55:07.056Z,98.65
2017-06-08T01:56:07.191Z,99.12
2017-06-08T01:57:07.037Z,98.46
2017-06-08T01:58:06.705Z,98.93
2017-06-08T01:59:06.694Z,99.5
2017-06-08T02:00:07.010Z,99.12
2017-06-08T02:01:06.998Z,99.02
2017-06-08T02:02:06.671Z,98.65
2017-06-08T02:03:07.005Z,98.74
2017-06-08T02:04:06.979Z,98.55
2017-06-08T02:05:06.962Z,98.65
2017-06-08T02:06:06.952Z,98.08
2017-06-08T02:07:06.781Z,97.79
2017-06-08T02:08:06.637Z,98.17
2017-06-08T02:09:06.606Z,98.46
2017-06-08T02:10:06.918Z,98.46
2017-06-08T02:11:06.905Z,98.65
2017-06-08T02:12:06.899Z,98.93
2017-06-08T02:13:06.569Z,99.31
2017-06-08T02:14:06.559Z,99.12
2017-06-08T02:15:06.874Z,99.41
2017-06-08T02:16:06.884Z,99.22
2017-06-08T02:17:07.003Z,98.93
2017-06-08T02:18:06.846Z,98.93
2017-06-08T02:19:06.849Z,98.55
2017-06-08T02:20:06.828Z,98.46
2017-06-08T02:21:06.816Z,99.02
2017-06-08T02:22:06.489Z,99.12
2017-06-08T02:23:06.800Z,99.31
2017-06-08T02:24:06.790Z,98.27
2017-06-08T02:25:06.794Z,97.79
2017-06-08T02:26:06.773Z,97.13
2017-06-08T02:27:06.774Z,97.31
2017-06-08T02:28:06.755Z,97.17
2017-06-08T02:29:06.750Z,96.6
2017-06-08T02:30:06.742Z,96.41
2017-06-08T02:31:06.724Z,96.36
2017-06-08T02:32:06.734Z,97.22
2017-06-08T02:33:06.388Z,97.69
2017-06-08T02:34:06.701Z,98.08
2017-06-08T02:35:06.692Z,97.6
2017-06-08T02:36:06.701Z,98.08
2017-06-08T02:37:06.349Z,98.17
2017-06-08T02:38:06.685Z,97.31
2017-06-08T02:39:06.673Z,97.6
2017-06-08T02:40:06.662Z,97.31
2017-06-08T02:41:06.640Z,96.94
2017-06-08T02:42:06.306Z,97.03
2017-06-08T02:43:06.638Z,97.6
2017-06-08T02:44:06.635Z,97.13
2017-06-08T02:45:06.296Z,96.36
2017-06-08T02:46:06.591Z,97.22
2017-06-08T02:47:06.590Z,97.79
2017-06-08T02:48:06.260Z,97.79
2017-06-08T02:49:06.566Z,97.79
2017-06-08T02:50:06.556Z,98.36
2017-06-08T02:51:06.222Z,98.55
2017-06-08T02:52:06.549Z,97.88
2017-06-08T02:53:06.528Z,97.79
2017-06-08T02:54:06.518Z,97.69
2017-06-08T02:55:06.550Z,97.03
2017-06-08T02:56:06.500Z,96.17
2017-06-08T02:57:06.509Z,95.51
2017-06-08T02:58:06.486Z,96.08
2017-06-08T02:59:06.488Z,95.89
2017-06-08T03:00:06.146Z,96.46
2017-06-08T03:01:06.455Z,96.26
2017-06-08T03:02:06.143Z,95.22
2017-06-08T03:03:06.116Z,94.89
2017-06-08T03:04:06.107Z,95.08
2017-06-08T03:05:06.418Z,94.98
2017-06-08T03:06:06.095Z,95.36
2017-06-08T03:07:06.403Z,95.6
2017-06-08T03:08:06.089Z,95.22
2017-06-08T03:09:06.386Z,95.41
2017-06-08T03:10:06.377Z,96.46
2017-06-08T03:11:06.081Z,96.46
2017-06-08T03:12:06.357Z,95.6
2017-06-08T03:13:06.027Z,95.22
2017-06-08T03:14:06.344Z,95.7
2017-06-08T03:15:06.354Z,94.74
2017-06-08T03:16:06.018Z,95.7
2017-06-08T03:17:06.310Z,95.6
2017-06-08T03:18:05.981Z,95.41
2017-06-08T03:19:05.972Z,95.79
2017-06-08T03:20:06.436Z,95.6
2017-06-08T03:21:05.956Z,95.17
2017-06-08T03:22:05.946Z,94.65
2017-06-08T03:23:06.264Z,94.03
2017-06-08T03:24:06.271Z,94.32
2017-06-08T03:25:06.250Z,94.56
2017-06-08T03:26:05.908Z,94.65
2017-06-08T03:27:06.226Z,94.7
2017-06-08T03:28:05.893Z,95.08
2017-06-08T03:29:05.904Z,95.03
2017-06-08T03:30:06.198Z,95.12
2017-06-08T03:31:06.186Z,95.6
2017-06-08T03:32:05.855Z,95.51
2017-06-08T03:33:05.845Z,95.6
2017-06-08T03:34:05.854Z,95.79
2017-06-08T03:35:05.831Z,95.51
2017-06-08T03:36:06.161Z,94.65
2017-06-08T03:37:05.812Z,94.84
2017-06-08T03:38:05.803Z,95.6
2017-06-08T03:39:06.116Z,95.22
2017-06-08T03:40:06.105Z,95.46
2017-06-08T03:41:06.099Z,94.93
2017-06-08T03:42:06.089Z,94.84
2017-06-08T03:43:06.076Z,95.51
2017-06-08T03:44:06.068Z,95.51
2017-06-08T03:45:06.080Z,95.51
2017-06-08T03:46:06.050Z,94.93
2017-06-08T03:47:05.727Z,94.74
2017-06-08T03:48:06.041Z,95.03
2017-06-08T03:49:05.706Z,95.79
2017-06-08T03:50:05.696Z,95.03
2017-06-08T03:51:05.681Z,95.22
2017-06-08T03:52:05.992Z,95.51
2017-06-08T03:53:06.007Z,95.98
2017-06-08T03:54:05.657Z,95.98
2017-06-08T03:55:05.655Z,94.93
2017-06-08T03:56:05.962Z,93.79
2017-06-08T03:57:05.953Z,94.93
2017-06-08T03:58:05.955Z,95.6
2017-06-08T03:59:05.932Z,95.41
2017-06-08T04:00:05.602Z,95.32
2017-06-08T04:01:05.916Z,95.03
2017-06-08T04:02:05.909Z,95.41
2017-06-08T04:03:05.927Z,95.32
2017-06-08T04:04:05.887Z,94.56
2017-06-08T04:05:05.897Z,94.74
2017-06-08T04:06:05.552Z,94.84
2017-06-08T04:07:05.874Z,94.51
2017-06-08T04:08:05.537Z,93.6
2017-06-08T04:09:05.843Z,92.89
2017-06-08T04:10:05.837Z,92.89
2017-06-08T04:11:05.828Z,92.99
2017-06-08T04:12:05.815Z,92.51
2017-06-08T04:13:05.809Z,92.41
2017-06-08T04:14:05.814Z,92.03
2017-06-08T04:15:05.469Z,92.79
2017-06-08T04:16:05.800Z,92.7
2017-06-08T04:17:05.466Z,93.46
2017-06-08T04:18:05.762Z,93.65
2017-06-08T04:19:05.784Z,92.89
2017-06-08T04:20:05.423Z,92.89
2017-06-08T04:21:05.736Z,93.37
2017-06-08T04:22:05.412Z,92.99
2017-06-08T04:23:05.735Z,91.84
2017-06-08T04:24:05.415Z,91.51
2017-06-08T04:25:05.401Z,91.41
2017-06-08T04:26:05.703Z,90.46
2017-06-08T04:27:05.839Z,89.98
2017-06-08T04:28:05.703Z,90.08
2017-06-08T04:29:05.668Z,90.46
2017-06-08T04:30:05.662Z,89.32
2017-06-08T04:31:05.331Z,88.08
2017-06-08T04:32:05.645Z,87.7
2017-06-08T04:33:05.315Z,87.27
2017-06-08T04:34:05.625Z,86.69
2017-06-08T04:35:05.635Z,87.17
2017-06-08T04:36:05.614Z,85.55
2017-06-08T04:37:05.608Z,84.5
2017-06-08T04:38:05.607Z,85.27
2017-06-08T04:39:05.587Z,84.88
2017-06-08T04:40:05.577Z,84.55
2017-06-08T04:41:05.247Z,84.16
2017-06-08T04:42:05.243Z,83.5
2017-06-08T04:43:05.231Z,83.31
2017-06-08T04:44:05.555Z,83.4
2017-06-08T04:45:05.535Z,83.02
2017-06-08T04:46:05.209Z,81.97
2017-06-08T04:47:05.522Z,81.97
2017-06-08T04:48:05.203Z,81.49
2017-06-08T04:49:05.508Z,81.12
2017-06-08T04:50:05.210Z,80.44
2017-06-08T04:51:05.494Z,81.06
2017-06-08T04:52:05.485Z,81.73
2017-06-08T04:53:05.159Z,80.87
2017-06-08T04:54:05.470Z,81.15
2017-06-08T04:55:05.140Z,81.73
2017-06-08T04:56:05.463Z,80.87
2017-06-08T04:57:05.125Z,79.15
2017-06-08T04:58:05.464Z,78.39
2017-06-08T04:59:05.437Z,78.39
2017-06-08T05:00:05.111Z,76.71
2017-06-08T05:01:05.120Z,76.42
2017-06-08T05:02:05.092Z,77
2017-06-08T05:03:05.407Z,78.23
2017-06-08T05:04:05.078Z,77.47
2017-06-08T05:05:05.075Z,75.76
2017-06-08T05:06:05.413Z,75.47
2017-06-08T05:07:05.391Z,75.42
2017-06-08T05:08:05.369Z,74.65
2017-06-08T05:09:05.044Z,74.74
2017-06-08T05:10:05.059Z,75.03
2017-06-08T05:11:05.049Z,73.41
2017-06-08T05:12:05.023Z,73.32
2017-06-08T05:13:05.341Z,73.03
2017-06-08T05:14:05.344Z,73.32
2017-06-08T05:15:05.007Z,72.26
2017-06-08T05:16:05.324Z,72.07
2017-06-08T05:17:05.343Z,72.55
2017-06-08T05:18:05.313Z,71.5
2017-06-08T05:19:05.319Z,72.36
2017-06-08T05:20:04.977Z,72.83
2017-06-08T05:21:05.311Z,72.74
2017-06-08T05:22:05.287Z,72.93
2017-06-08T05:23:04.958Z,72.17
2017-06-08T05:24:04.953Z,72.36
2017-06-08T05:25:05.274Z,72.17
2017-06-08T05:26:04.962Z,71.41
2017-06-08T05:27:05.257Z,71.12
2017-06-08T05:28:05.252Z,71.59
2017-06-08T05:29:05.245Z,71.98
2017-06-08T05:30:04.918Z,73.12
2017-06-08T05:31:05.234Z,71.41
2017-06-08T05:32:05.255Z,71.41
2017-06-08T05:33:05.226Z,71.31
2017-06-08T05:34:04.897Z,70.48
2017-06-08T05:35:05.219Z,69.62
2017-06-08T05:36:05.205Z,69.53
2017-06-08T05:37:05.200Z,69.72
2017-06-08T05:38:05.189Z,70.96
2017-06-08T05:39:05.187Z,70.87
2017-06-08T05:40:04.860Z,70.39
2017-06-08T05:41:05.189Z,68.76
2017-06-08T05:42:04.851Z,68.9
2017-06-08T05:43:05.178Z,68.8
2017-06-08T05:44:05.163Z,67.94
2017-06-08T05:45:04.831Z,67.84
2017-06-08T05:46:05.152Z,69.27
2017-06-08T05:47:05.145Z,69.12
2017-06-08T05:48:05.152Z,67.21
2017-06-08T05:49:05.133Z,66.83
2017-06-08T05:50:05.129Z,65.97
2017-06-08T05:51:05.127Z,65.97
2017-06-08T05:52:05.143Z,66.25
2017-06-08T05:53:05.113Z,66.16
2017-06-08T05:54:05.110Z,66.44
2017-06-08T05:55:04.930Z,66.35
2017-06-08T05:56:04.793Z,65.23
2017-06-08T05:57:05.098Z,67.14
2017-06-08T05:58:05.089Z,66.38
2017-06-08T05:59:05.086Z,66.19
2017-06-08T06:00:04.759Z,63.42
2017-06-08T06:01:05.078Z,63.7
2017-06-08T06:02:05.090Z,63.51
2017-06-08T06:03:05.068Z,63.42
2017-06-08T06:04:05.079Z,63.6
2017-06-08T06:05:05.063Z,63.89
2017-06-08T06:06:05.208Z,62.46
2017-06-08T06:07:04.728Z,63.99
2017-06-08T06:08:05.069Z,63.89
2017-06-08T06:09:04.720Z,63.99
2017-06-08T06:10:05.042Z,64.98
2017-06-08T06:11:05.033Z,65.36
2017-06-08T06:12:04.710Z,63.26
2017-06-08T06:13:05.030Z,63.93
2017-06-08T06:14:04.701Z,62.33
2017-06-08T06:15:05.020Z,62.04
2017-06-08T06:16:05.015Z,62.52
2017-06-08T06:17:04.693Z,60.99
2017-06-08T06:18:05.007Z,61.57
2017-06-08T06:19:04.684Z,62.14
2017-06-08T06:20:05.002Z,60.32
2017-06-08T06:21:04.996Z,59.75
2017-06-08T06:22:04.995Z,61.76
2017-06-08T06:23:05.012Z,62.52
2017-06-08T06:24:04.666Z,63.39
2017-06-08T06:25:04.982Z,62.52
2017-06-08T06:26:04.659Z,62.62
2017-06-08T06:27:04.975Z,60.51
2017-06-08T06:28:04.813Z,61.08
2017-06-08T06:29:05.006Z,61.66
2017-06-08T06:30:04.646Z,60.99
2017-06-08T06:31:04.645Z,61.57
2017-06-08T06:32:04.958Z,61.18
2017-06-08T06:33:04.956Z,60.03
2017-06-08T06:34:04.962Z,60.32
2017-06-08T06:35:04.651Z,60.51
2017-06-08T06:36:04.965Z,59.36
2017-06-08T06:37:04.943Z,60.32
2017-06-08T06:38:04.632Z,60.61
2017-06-08T06:39:04.949Z,60.03
2017-06-08T06:40:04.936Z,60.61
2017-06-08T06:41:04.936Z,60.25
2017-06-08T06:42:04.610Z,57.5
2017-06-08T06:43:04.931Z,55.04
2017-06-08T06:44:04.606Z,52.79
2017-06-08T06:45:04.603Z,49.93
2017-06-08T06:46:04.600Z,47.68
2017-06-08T06:47:04.919Z,45.29
2017-06-08T06:48:04.918Z,44.17
2017-06-08T06:49:04.917Z,42.96
2017-06-08T06:50:04.913Z,42.59
2017-06-08T06:51:04.920Z,41.82
2017-06-08T06:52:04.911Z,41.38
2017-06-08T06:53:04.913Z,39.09
2017-06-08T06:54:04.914Z,37.54
2017-06-08T06:55:04.919Z,36.3
2017-06-08T06:56:04.595Z,36.9
2017-06-08T06:57:04.623Z,35.28
2017-06-08T06:58:04.918Z,35.28
2017-06-08T06:59:04.594Z,33.45
2017-06-08T07:00:04.940Z,35.57
2017-06-08T07:01:04.598Z,35.76
2017-06-08T07:02:04.953Z,35.84
2017-06-08T07:03:04.923Z,36.98
2017-06-08T07:04:04.924Z,36.03
2017-06-08T07:05:04.925Z,34.99
2017-06-08T07:06:04.941Z,35.86
2017-06-08T07:07:04.932Z,35.28
2017-06-08T07:08:04.946Z,34.91
2017-06-08T07:09:04.615Z,34.34
2017-06-08T07:10:04.940Z,32.6
2017-06-08T07:11:04.943Z,34.84
2017-06-08T07:12:04.945Z,30.39
2017-06-08T07:13:04.960Z,31.28
2017-06-08T07:14:04.625Z,29.05
2017-06-08T07:15:04.626Z,30.41
2017-06-08T07:16:04.644Z,31.67
2017-06-08T07:17:04.634Z,31.67
2017-06-08T07:18:04.717Z,28.28
2017-06-08T07:19:04.639Z,29.36
2017-06-08T07:20:04.968Z,31.28
2017-06-08T07:21:04.649Z,30.31
2017-06-08T07:22:04.993Z,29.16
2017-06-08T07:23:05.178Z,28.66
2017-06-08T07:24:04.979Z,31.07
2017-06-08T07:25:04.987Z,32.51
2017-06-08T07:26:05.022Z,31.54
2017-06-08T07:27:04.672Z,32.12
2017-06-08T07:28:04.673Z,32.59
2017-06-08T07:29:05.003Z,33.26
2017-06-08T07:30:05.004Z,34.31
2017-06-08T07:31:04.702Z,34.99
2017-06-08T07:32:04.687Z,33.73
2017-06-08T07:33:05.014Z,33.55
2017-06-08T07:34:04.702Z,33.18
2017-06-08T07:35:04.703Z,33.37
2017-06-08T07:36:05.022Z,32.14
2017-06-08T07:37:05.031Z,32.15
2017-06-08T07:38:04.713Z,31.1
2017-06-08T07:39:05.041Z,30.32
2017-06-08T07:40:05.054Z,30.34
2017-06-08T07:41:05.047Z,28.89
2017-06-08T07:42:05.050Z,28.69
2017-06-08T07:43:04.730Z,28.87
2017-06-08T07:44:05.054Z,29.37
2017-06-08T07:45:05.070Z,29.85
2017-06-08T07:46:05.069Z,28.03
2017-06-08T07:47:04.749Z,28.61
2017-06-08T07:48:05.072Z,25.9
2017-06-08T07:49:05.077Z,27.66
2017-06-08T07:50:04.758Z,26.48
2017-06-08T07:51:05.088Z,28.19
2017-06-08T07:52:05.090Z,28.66
2017-06-08T07:53:05.096Z,30.69
2017-06-08T07:54:05.101Z,31.26
2017-06-08T07:55:05.103Z,32.29
2017-06-08T07:56:04.787Z,33.36
2017-06-08T07:57:04.809Z,33.55
2017-06-08T07:58:05.122Z,32.99
2017-06-08T07:59:04.801Z,32.14
2017-06-08T08:00:05.131Z,29.63
2017-06-08T08:01:04.832Z,29.34
2017-06-08T08:02:05.137Z,31.57
2017-06-08T08:03:04.817Z,30.23
2017-06-08T08:04:05.143Z,28.19
2017-06-08T08:05:05.147Z,27.03
2017-06-08T08:06:05.173Z,26.64
2017-06-08T08:07:05.196Z,27.03
2017-06-08T08:08:04.836Z,28.56
2017-06-08T08:09:04.855Z,28.55
2017-06-08T08:10:04.844Z,29.99
2017-06-08T08:11:05.174Z,31.04
2017-06-08T08:12:05.171Z,33.72
2017-06-08T08:13:04.857Z,37.27
2017-06-08T08:14:04.852Z,35.14
2017-06-08T08:15:05.177Z,33.7
2017-06-08T08:16:05.178Z,32.44
2017-06-08T08:17:05.205Z,33.2
2017-06-08T08:18:05.217Z,35.58
2017-06-08T08:19:05.187Z,36.04
2017-06-08T08:20:05.191Z,38.81
2017-06-08T08:21:05.189Z,38.22
2017-06-08T08:22:04.867Z,39.26
2017-06-08T08:23:05.187Z,43.78
2017-06-08T08:24:04.877Z,44.05
2017-06-08T08:25:05.193Z,44.34
2017-06-08T08:26:05.191Z,42.89
2017-06-08T08:27:05.196Z,42.41
2017-06-08T08:28:05.194Z,42.12
2017-06-08T08:29:05.196Z,43.45
2017-06-08T08:30:05.200Z,45.66
2017-06-08T08:31:05.196Z,44.96
2017-06-08T08:32:04.874Z,43.62
2017-06-08T08:33:05.201Z,46.5
2017-06-08T08:34:04.876Z,49.67
2017-06-08T08:35:05.199Z,45.25
2017-06-08T08:36:05.199Z,47.94
2017-06-08T08:37:04.897Z,49.48
2017-06-08T08:38:05.201Z,47
2017-06-08T08:39:05.198Z,46.62
2017-06-08T08:40:05.204Z,48.16
2017-06-08T08:41:05.210Z,46.23
2017-06-08T08:42:05.200Z,43.66
2017-06-08T08:43:05.197Z,44.51
2017-06-08T08:44:05.199Z,42.68
2017-06-08T08:45:05.198Z,43.43
2017-06-08T08:46:05.200Z,43.71
2017-06-08T08:47:05.203Z,45.23
2017-06-08T08:48:05.195Z,46.28
2017-06-08T08:49:05.200Z,46.09
2017-06-08T08:50:05.200Z,48.11
2017-06-08T08:51:05.211Z,47.36
2017-06-08T08:52:05.194Z,43.62
2017-06-08T08:53:05.213Z,43.04
2017-06-08T08:54:04.871Z,43.81
2017-06-08T08:55:04.875Z,45.9
2017-06-08T08:56:05.199Z,47.44
2017-06-08T08:57:04.872Z,45.61
2017-06-08T08:58:05.191Z,48.21
2017-06-08T08:59:04.880Z,46.59
2017-06-08T09:00:05.195Z,44.58
2017-06-08T09:01:05.194Z,44.48
2017-06-08T09:02:05.189Z,44.1
2017-06-08T09:03:05.204Z,44
2017-06-08T09:04:05.190Z,41.72
2017-06-08T09:05:05.189Z,43.71
2017-06-08T09:06:04.884Z,43.54
2017-06-08T09:07:04.871Z,41.05
2017-06-08T09:08:05.188Z,44.29
2017-06-08T09:09:05.184Z,43.93
2017-06-08T09:10:05.208Z,45.66
2017-06-08T09:11:05.182Z,45.08
2017-06-08T09:12:05.181Z,44.79
2017-06-08T09:13:05.335Z,42.2
2017-06-08T09:14:04.907Z,39.41
2017-06-08T09:15:05.200Z,40.08
2017-06-08T09:16:04.874Z,41.14
2017-06-08T09:17:05.177Z,40.08
2017-06-08T09:18:04.882Z,40.47
2017-06-08T09:19:05.181Z,42.97
2017-06-08T09:20:04.875Z,43.07
2017-06-08T09:21:05.180Z,43.16
2017-06-08T09:22:05.201Z,42.2
2017-06-08T09:23:05.183Z,39.7
2017-06-08T09:24:05.377Z,41.24
2017-06-08T09:25:04.874Z,37.59
2017-06-08T09:26:05.177Z,37.97
2017-06-08T09:27:05.212Z,38.93
2017-06-08T09:28:05.175Z,39.31
2017-06-08T09:29:05.178Z,39.7
2017-06-08T09:30:05.174Z,39.89
2017-06-08T09:31:05.177Z,41.83
2017-06-08T09:32:05.176Z,39.53
2017-06-08T09:33:04.851Z,42.8
2017-06-08T09:34:05.189Z,39.33
2017-06-08T09:35:05.004Z,40.3
2017-06-08T09:36:05.171Z,37.7
2017-06-08T09:37:05.184Z,38.66
2017-06-08T09:38:04.854Z,37.32
2017-06-08T09:39:05.185Z,36.93
2017-06-08T09:40:04.871Z,37.32
2017-06-08T09:41:04.850Z,38.85
2017-06-08T09:42:04.859Z,39.24
2017-06-08T09:43:04.870Z,40.11
2017-06-08T09:44:05.171Z,39.91
2017-06-08T09:45:05.198Z,38.09
2017-06-08T09:46:05.322Z,38.28
2017-06-08T09:47:05.168Z,35.77
2017-06-08T09:48:05.171Z,37.68
2017-06-08T09:49:05.171Z,39.99
2017-06-08T09:50:05.170Z,40.08
2017-06-08T09:51:05.191Z,40.08
2017-06-08T09:52:05.173Z,37.1
2017-06-08T09:53:05.171Z,36.83
2017-06-08T09:54:05.184Z,37.22
2017-06-08T09:55:05.170Z,37.7
2017-06-08T09:56:04.847Z,37.7
2017-06-08T09:57:05.322Z,37.99
2017-06-08T09:58:04.865Z,38.66
2017-06-08T09:59:04.848Z,40.11
2017-06-08T10:00:04.848Z,41.66
2017-06-08T10:01:04.852Z,40.61
2017-06-08T10:02:05.191Z,38.2
2017-06-08T10:03:04.846Z,38.49
2017-06-08T10:04:04.850Z,39.74
2017-06-08T10:05:05.171Z,38.78
2017-06-08T10:06:04.850Z,39.74
2017-06-08T10:07:04.850Z,38.78
2017-06-08T10:08:04.999Z,40.12
2017-06-08T10:09:04.849Z,41.18
2017-06-08T10:10:04.861Z,38.31
2017-06-08T10:11:04.849Z,38.49
2017-06-08T10:12:04.852Z,39.16
2017-06-08T10:13:05.173Z,41.38
2017-06-08T10:14:04.853Z,40.12
2017-06-08T10:15:05.173Z,40.12
2017-06-08T10:16:05.170Z,42.05
2017-06-08T10:17:05.175Z,41.56
2017-06-08T10:18:05.174Z,41.83
2017-06-08T10:19:05.321Z,42.6
2017-06-08T10:20:05.204Z,43.3
2017-06-08T10:21:04.857Z,41.38
2017-06-08T10:22:05.208Z,40.51
2017-06-08T10:23:04.853Z,40.99
2017-06-08T10:24:04.856Z,41.28
2017-06-08T10:25:05.176Z,41.86
2017-06-08T10:26:04.853Z,41.56
2017-06-08T10:27:05.184Z,41.38
2017-06-08T10:28:04.855Z,39.64
2017-06-08T10:29:05.191Z,45.51
2017-06-08T10:30:05.006Z,40.91
2017-06-08T10:31:04.857Z,39.95
2017-06-08T10:32:05.180Z,37.62
2017-06-08T10:33:05.177Z,39.45
2017-06-08T10:34:04.861Z,38.29
2017-06-08T10:35:05.181Z,40.99
2017-06-08T10:36:04.858Z,41.56
2017-06-08T10:37:05.204Z,39.66
2017-06-08T10:38:05.180Z,37.83
2017-06-08T10:39:05.180Z,39.37
2017-06-08T10:40:05.203Z,39.09
2017-06-08T10:41:05.331Z,39.66
2017-06-08T10:42:05.197Z,41.13
2017-06-08T10:43:04.874Z,39.49
2017-06-08T10:44:08.211Z,38.89
2017-06-08T10:45:05.178Z,39.66
2017-06-08T10:46:04.857Z,42.07
2017-06-08T10:47:05.205Z,38.24
2017-06-08T10:48:05.179Z,39.01
2017-06-08T10:49:05.176Z,40.14
2017-06-08T10:50:05.179Z,42.55
2017-06-08T10:51:04.857Z,41.88
2017-06-08T10:52:05.006Z,40.81
2017-06-08T10:53:05.188Z,40.05
2017-06-08T10:54:04.859Z,41.88
2017-06-08T10:55:05.184Z,41.97
2017-06-08T10:56:05.189Z,39.76
2017-06-08T10:57:05.184Z,42.46
2017-06-08T10:58:05.199Z,41.89
2017-06-08T10:59:05.182Z,42.19
2017-06-08T11:00:05.183Z,43.82
2017-06-08T11:01:05.181Z,41.13
2017-06-08T11:02:05.181Z,40.45
2017-06-08T11:03:05.331Z,42.19
2017-06-08T11:04:04.857Z,41.61
2017-06-08T11:05:04.862Z,41.22
2017-06-08T11:06:04.879Z,39.87
2017-06-08T11:07:05.197Z,40.81
2017-06-08T11:08:04.882Z,39.47
2017-06-08T11:09:05.205Z,41.56
2017-06-08T11:10:04.862Z,42.82
2017-06-08T11:11:05.182Z,40.89
2017-06-08T11:12:05.180Z,42.05
2017-06-08T11:13:05.184Z,41.76
2017-06-08T11:14:05.011Z,43.01
2017-06-08T11:15:05.184Z,39.54
2017-06-08T11:16:05.182Z,40.51
2017-06-08T11:17:05.180Z,43.11
2017-06-08T11:18:05.179Z,43.97
2017-06-08T11:19:05.183Z,43.97
2017-06-08T11:20:04.863Z,44.17
2017-06-08T11:21:05.180Z,43.97
2017-06-08T11:22:05.194Z,41.95
2017-06-08T11:23:04.859Z,41.38
2017-06-08T11:24:05.189Z,41.38
2017-06-08T11:25:05.007Z,42.24
2017-06-08T11:26:04.855Z,43.28
2017-06-08T11:27:05.186Z,44.07
2017-06-08T11:28:04.859Z,42.7
2017-06-08T11:29:05.181Z,42.8
2017-06-08T11:30:05.179Z,43.08
2017-06-08T11:31:05.174Z,40.88
2017-06-08T11:32:05.180Z,42.24
2017-06-08T11:33:05.193Z,46.77
2017-06-08T11:34:05.173Z,44.84
2017-06-08T11:35:04.857Z,41.76
2017-06-08T11:36:05.347Z,42.24
2017-06-08T11:37:05.174Z,45.8
2017-06-08T11:38:04.857Z,43.23
2017-06-08T11:39:05.172Z,42.26
2017-06-08T11:40:05.175Z,43.73
2017-06-08T11:41:05.175Z,43.24
2017-06-08T11:42:05.173Z,41.41
2017-06-08T11:43:05.198Z,42.88
2017-06-08T11:44:04.856Z,42.88
2017-06-08T11:45:04.856Z,42.71
2017-06-08T11:46:04.856Z,43.96
2017-06-08T11:47:05.178Z,41.07
2017-06-08T11:48:04.855Z,40.32
2017-06-08T11:49:04.858Z,38.87
2017-06-08T11:50:05.187Z,38.1
2017-06-08T11:51:05.185Z,37.13
2017-06-08T11:52:05.183Z,39.82
2017-06-08T11:53:05.184Z,41.94
2017-06-08T11:54:05.193Z,38.56
2017-06-08T11:55:04.867Z,38.28
2017-06-08T11:56:04.894Z,38.85
2017-06-08T11:57:05.184Z,41.94
2017-06-08T11:58:05.338Z,42.13
2017-06-08T11:59:05.189Z,40.11
2017-06-08T12:00:05.207Z,39.34
2017-06-08T12:01:05.201Z,38.85
2017-06-08T12:02:04.869Z,41.84
2017-06-08T12:03:05.190Z,39.99
2017-06-08T12:04:04.874Z,42.97
2017-06-08T12:05:05.190Z,42.69
2017-06-08T12:06:05.195Z,42.11
2017-06-08T12:07:05.198Z,42.69
2017-06-08T12:08:04.872Z,42.69
2017-06-08T12:09:05.030Z,41.92
2017-06-08T12:10:05.194Z,42.59
2017-06-08T12:11:05.196Z,42.19
2017-06-08T12:12:05.237Z,41.8
2017-06-08T12:13:04.898Z,42.76
2017-06-08T12:14:04.879Z,40.84
2017-06-08T12:15:05.241Z,41.22
2017-06-08T12:16:05.063Z,41.41
2017-06-08T12:17:05.218Z,40.16
2017-06-08T12:18:05.235Z,40.45
2017-06-08T12:19:05.218Z,42.09
2017-06-08T12:20:05.369Z,40.64
2017-06-08T12:21:05.209Z,39.68
2017-06-08T12:22:05.200Z,38.33
2017-06-08T12:23:05.236Z,40.24
2017-06-08T12:24:04.882Z,39.56
2017-06-08T12:25:04.884Z,39.76
2017-06-08T12:26:05.206Z,42.74
2017-06-08T12:27:04.884Z,43.41
2017-06-08T12:28:05.207Z,40.91
2017-06-08T12:29:04.885Z,39.66
2017-06-08T12:30:04.888Z,40.53
2017-06-08T12:31:05.388Z,40.24
2017-06-08T12:32:05.233Z,37.95
2017-06-08T12:33:04.886Z,37.66
2017-06-08T12:34:04.895Z,40.81
2017-06-08T12:35:04.891Z,41.59
2017-06-08T12:36:05.228Z,42.65
2017-06-08T12:37:05.219Z,44.09
2017-06-08T12:38:04.894Z,41.89
2017-06-08T12:39:04.888Z,40.55
2017-06-08T12:40:05.216Z,40.55
2017-06-08T12:41:04.888Z,39.76
2017-06-08T12:42:05.045Z,38.22
2017-06-08T12:43:04.891Z,39.56
2017-06-08T12:44:04.889Z,40.43
2017-06-08T12:45:05.212Z,41.88
2017-06-08T12:46:04.892Z,40.34
2017-06-08T12:47:05.212Z,38.79
2017-06-08T12:48:05.217Z,38.89
2017-06-08T12:49:04.892Z,39.76
2017-06-08T12:50:04.888Z,40.53
2017-06-08T12:51:04.891Z,38.02
2017-06-08T12:52:04.896Z,42.16
2017-06-08T12:53:05.043Z,40.53
2017-06-08T12:54:05.213Z,39.56
2017-06-08T12:55:05.229Z,40.63